Flight Track Log - Related Links

Times and Time Zones

All times are in EDT time to prevent confusion due to time zone crossing. See the SWA2130 flight status page for this flight to view local times or setup timezone preferences in your user account.

Time Position Orientation Groundspeed Altitude Reporting Facility
EDT Latitude Longitude Course Direction KTS MPH feet Rate Location/Type
Thu 11:05:50 PM 31.7828 -106.4128 214° Southwest 173 199 5,800  Level Albuquerque Center
Thu 11:06:51 PM 31.7361 -106.3444 129° Southeast 314 361 7,200 2,294 Climbing Albuquerque Center
Thu 11:08:06 PM 31.6856 -106.2322 118° Southeast 313 360 11,000 3,322 Climbing Albuquerque Center
Thu 11:08:52 PM 31.6506 -106.1558 118° Southeast 344 396 13,900 3,639 Climbing Albuquerque Center
Thu 11:09:07 PM 31.6397 -106.1319 118° Southeast 345 397 14,700 2,805 Climbing Albuquerque Center
Thu 11:10:09 PM 31.5897 -106.0289 120° Southeast 362 417 17,500 2,683 Climbing Albuquerque Center
Thu 11:11:10 PM 31.5311 -105.9233 123° Southeast 387 445 20,200 2,656 Climbing Albuquerque Center
Thu 11:12:11 PM 31.4706 -105.8089 122° Southeast 413 475 22,900 2,585 Climbing Albuquerque Center
Thu 11:13:13 PM 31.4458 -105.6647 101° East 448 516 25,500 2,293 Climbing Albuquerque Center
Thu 11:14:14 PM 31.4203 -105.5161 101° East 463 533 27,600 1,951 Climbing Albuquerque Center
Thu 11:15:16 PM 31.3933 -105.3617 102° East 480 552 29,500 1,707 Climbing Albuquerque Center
Thu 11:16:17 PM 31.3661 -105.2014 101° East 494 568 31,100 1,574 Climbing Albuquerque Center
Thu 11:17:18 PM 31.3361 -105.0344 102° East 514 592 32,700 1,756 Climbing Albuquerque Center
Thu 11:18:20 PM 31.3003 -104.8336 102° East 520 598 34,700 1,805 Climbing Albuquerque Center
Thu 11:19:21 PM 31.2711 -104.6672 102° East 521 600 36,400 1,721 Climbing Albuquerque Center
Thu 11:20:22 PM 31.2419 -104.5050 102° East 510 587 38,200 1,268 Climbing Albuquerque Center
Thu 11:21:24 PM 31.2119 -104.3447 102° East 507 583 39,000 390 Climbing Albuquerque Center
Thu 11:22:25 PM 31.1833 -104.1872 102° East 500 575 39,000  Level Albuquerque Center
Thu 11:23:27 PM 31.1536 -104.0325 103° East 493 567 39,000  Level Albuquerque Center
Thu 11:24:28 PM 31.1253 -103.8794 102° East 487 560 39,000  Level Albuquerque Center
Thu 11:25:29 PM 31.0956 -103.7233 102° East 481 554 39,000  Level Albuquerque Center
Thu 11:26:31 PM 31.0642 -103.5689 103° East 488 562 39,000  Level Albuquerque Center
Thu 11:27:32 PM 31.0350 -103.4161 103° East 487 560 39,000  Level Albuquerque Center
Thu 11:28:33 PM 30.9992 -103.2322 103° East 488 562 39,000  Level Albuquerque Center
Thu 11:29:35 PM 30.9708 -103.0814 102° East 484 557 39,000  Level Albuquerque Center
Thu 11:30:36 PM 30.9397 -102.9289 103° East 483 556 39,000  Level Albuquerque Center
Thu 11:31:38 PM 30.9014 -102.7781 106° East 484 557 39,000  Level Albuquerque Center
Thu 11:32:39 PM 30.8606 -102.6258 107° East 490 564 39,000  Level Albuquerque Center
Thu 11:33:40 PM 30.8208 -102.4725 107° East 495 570 39,000  Level Albuquerque Center
Thu 11:34:42 PM 30.7803 -102.3197 107° East 498 573 39,000  Level Albuquerque Center
Thu 11:35:43 PM 30.7322 -102.1353 107° East 500 575 39,000  Level Albuquerque Center
Thu 11:36:44 PM 30.6919 -101.9819 107° East 500 575 39,000  Level Albuquerque Center
Thu 11:37:46 PM 30.6503 -101.8303 108° East 498 573 39,000  Level Albuquerque Center
Thu 11:38:32 PM 30.6181 -101.7064 107° East 498 573 39,000  Level Houston Center
Thu 11:39:33 PM 30.5808 -101.5661 107° East 495 570 39,000  Level Houston Center
Thu 11:40:33 PM 30.5403 -101.4139 107° East 496 571 39,000  Level Houston Center
Thu 11:41:34 PM 30.4981 -101.2619 108° East 496 571 39,000  Level Houston Center
Thu 11:42:35 PM 30.4558 -101.1089 108° East 497 572 39,000  Level Houston Center
Thu 11:43:36 PM 30.4153 -100.9553 107° East 499 574 39,000  Level Houston Center
Thu 11:44:36 PM 30.3717 -100.8058 109° East 491 565 39,000 -248 Level Houston Center
Thu 11:45:37 PM 30.3306 -100.6528 107° East 496 571 38,500 -1,672 Descending Houston Center
Thu 11:46:38 PM 30.2886 -100.5019 108° East 493 567 35,600 -3,223 Descending Houston Center
Thu 11:47:38 PM 30.2461 -100.3456 107° East 504 580 32,000 -3,471 Descending Houston Center
Thu 11:48:39 PM 30.2017 -100.1867 108° East 508 585 28,600 -3,049 Descending Houston Center
Thu 11:49:40 PM 30.1569 -100.0303 108° East 505 581 25,800 -2,459 Descending Houston Center
Thu 11:50:41 PM 30.1150 -99.8842 108° East 481 554 23,600 -2,182 Descending Houston Center
Thu 11:51:41 PM 30.0717 -99.7342 108° East 449 517 21,400 -1,934 Descending Houston Center
Thu 11:52:42 PM 30.0400 -99.6222 108° East 419 482 19,700 -1,721 Descending Houston Center
Thu 11:53:43 PM 30.0056 -99.5025 108° East 397 457 17,900 -1,736 Descending Houston Center
Thu 11:54:43 PM 29.9731 -99.3892 108° East 379 436 16,200 -1,934 Descending Houston Center
Thu 11:55:44 PM 29.9342 -99.2558 109° East 364 419 14,000 -1,918 Descending Houston Center
Thu 11:56:45 PM 29.8978 -99.1547 113° Southeast 343 395 12,300 -1,983 Descending Houston Center
Thu 11:57:45 PM 29.8544 -99.0592 118° Southeast 343 395 10,000 -1,537 Descending Houston Center
Thu 11:58:46 PM 29.8131 -98.9636 117° Southeast 307 353 9,200 -1,131 Descending Houston Center
Thu 11:59:47 PM 29.7769 -98.8822 117° Southeast 286 329 7,700 -1,488 Descending Houston Center
Fri 12:00:47 AM 29.7411 -98.8028 117° Southeast 280 322 6,200 -1,488 Descending Houston Center
Fri 12:01:48 AM 29.7069 -98.7267 117° Southeast 270 311 4,700 -1,091 Descending Houston Center
Fri 12:02:48 AM 29.6747 -98.6547 117° Southeast 257 296 4,000 -595 Descending Houston Center
Fri 12:03:49 AM 29.6336 -98.6025 132° Southeast 224 258 3,500 -738 Descending Houston Center
Fri 12:04:50 AM 29.5978 -98.5553 131° Southeast 201 231 2,500 -893 Descending Houston Center
Fri 12:05:50 AM 29.5700 -98.5194 132° Southeast 149 171 1,700 -744 Descending Houston Center
Fri 12:06:51 AM 29.5469 -98.4883 130° Southeast 133 153 1,000 -689 Descending Houston Center
Fri 12:08:00 AM 29.5333 -98.4667 120° Southeast  Level FlightAware Approximate
Fri 12:15:00 AM 29.5340 -98.4691 120° Southeast  Level Estimated
Fri 12:16:00 AM 29.5333 -98.4667 120° Southeast  Level FlightAware Approximate
Fri 12:17:00 AM 29.5340 -98.4691 120° Southeast  Level Estimated

Login

Don't have an account? Register now (free) for customized features, flight alerts, and more!